Time;durP1;ratioP1;P1;durP2;ratioP2;P2;SDS_P1;SDS_P2;PMS_P1;PMS_P2;Temp;Humidity;BMP_temperature;BMP_pressure;BME280_temperature;BME280_humidity;BME280_pressure;Samples;Min_cycle;Max_cycle;Signal;HPM_P1;HPM_P2
2022/10/19 00:01:25;;;;;;;6.90;4.72;;;;;;;13.57;84.83;99362.82;1662684;84;25711;-61
2022/10/19 00:03:54;;;;;;;5.78;4.55;;;;;;;13.52;84.67;99363.77;1654322;84;25749;-61
2022/10/19 00:06:31;;;;;;;6.55;4.62;;;;;;;13.48;84.68;99356.69;1671753;85;25430;-61
2022/10/19 00:09:01;;;;;;;11.73;5.15;;;;;;;13.45;84.69;99356.50;1664358;85;27491;-61
2022/10/19 00:11:30;;;;;;;7.08;5.37;;;;;;;13.42;84.82;99351.07;1675389;85;25702;-61
2022/10/19 00:13:58;;;;;;;9.48;5.90;;;;;;;13.36;84.62;99353.13;1658681;85;25460;-61
2022/10/19 00:16:28;;;;;;;5.92;4.40;;;;;;;13.30;84.78;99359.33;1673999;85;25808;-61
2022/10/19 00:19:00;;;;;;;7.12;5.60;;;;;;;13.22;84.83;99355.98;1661098;85;25461;-61
2022/10/19 00:21:28;;;;;;;8.78;5.65;;;;;;;13.16;84.96;99359.98;1673797;85;27494;-61
2022/10/19 00:23:54;;;;;;;8.10;5.65;;;;;;;13.14;85.25;99359.48;1653379;84;25741;-61
2022/10/19 00:26:20;;;;;;;9.38;5.55;;;;;;;13.14;85.23;99366.36;1670701;84;25452;-60
2022/10/19 00:28:46;;;;;;;9.88;6.35;;;;;;;13.13;85.24;99364.16;1676299;84;25743;-60
2022/10/19 00:31:16;;;;;;;8.23;6.17;;;;;;;13.11;85.52;99362.30;1675990;84;25474;-60
2022/10/19 00:33:45;;;;;;;8.73;6.37;;;;;;;13.10;86.05;99357.91;1659003;84;27389;-60
2022/10/19 00:36:19;;;;;;;10.50;7.22;;;;;;;13.12;86.36;99356.22;1653844;84;25497;-60
2022/10/19 00:38:47;;;;;;;11.05;7.15;;;;;;;13.15;86.86;99352.84;1668687;84;25675;-60
2022/10/19 00:41:16;;;;;;;11.83;8.00;;;;;;;13.11;86.53;99351.84;1671399;85;26568;-59
2022/10/19 00:44:08;;;;;;;10.25;7.62;;;;;;;13.10;86.15;99341.98;1666256;85;25619;-60
2022/10/19 00:46:39;;;;;;;12.37;8.60;;;;;;;13.16;86.13;99347.02;1677588;85;27378;-60
2022/10/19 00:49:25;;;;;;;13.62;8.40;;;;;;;13.10;85.92;99341.39;1670603;85;25681;-60
2022/10/19 00:51:55;;;;;;;13.98;8.88;;;;;;;13.16;86.17;99350.36;1645954;85;25528;-60
2022/10/19 00:54:23;;;;;;;11.57;8.25;;;;;;;13.22;86.20;99349.66;1683616;85;25754;-60
2022/10/19 00:56:52;;;;;;;12.53;8.30;;;;;;;13.27;85.79;99346.20;1674486;85;25620;-60
2022/10/19 00:59:21;;;;;;;15.30;9.23;;;;;;;13.31;85.93;99339.52;1656937;85;27855;-60
2022/10/19 01:01:48;;;;;;;15.15;9.45;;;;;;;13.39;85.95;99335.19;1656419;85;25735;-60
2022/10/19 01:04:15;;;;;;;14.35;9.48;;;;;;;13.36;85.50;99337.19;1682789;85;25741;-60
2022/10/19 01:06:42;;;;;;;15.48;9.78;;;;;;;13.40;85.63;99336.80;1675524;85;25797;-60
2022/10/19 01:09:09;;;;;;;14.10;8.98;;;;;;;13.33;85.48;99328.19;1667977;85;25701;-60
2022/10/19 01:12:02;;;;;;;14.13;9.65;;;;;;;13.35;86.22;99315.72;1658428;85;27345;-60
2022/10/19 01:15:03;;;;;;;20.08;11.48;;;;;;;13.40;85.91;99327.98;1677477;85;25807;-60
2022/10/19 01:18:09;;;;;;;14.63;9.23;;;;;;;13.41;85.81;99316.39;1668439;85;25617;-60
2022/10/19 01:21:09;;;;;;;18.52;9.75;;;;;;;13.45;86.00;99316.58;1672199;85;25817;-60
2022/10/19 01:24:16;;;;;;;13.40;9.37;;;;;;;13.52;85.86;99312.27;1666946;85;25640;-60
2022/10/19 01:27:18;;;;;;;12.75;9.10;;;;;;;13.54;85.43;99310.02;1676963;85;27666;-63
2022/10/19 01:30:20;;;;;;;14.40;9.55;;;;;;;13.60;85.47;99320.33;1655526;85;25852;-60
2022/10/19 01:33:16;;;;;;;14.63;9.33;;;;;;;13.59;85.08;99312.38;1603939;87;25863;-60
2022/10/19 01:35:50;;;;;;;17.00;9.03;;;;;;;13.51;85.17;99311.22;1577720;90;25752;-60
2022/10/19 01:38:40;;;;;;;12.15;9.05;;;;;;;13.42;85.67;99323.54;1593289;88;25661;-60
2022/10/19 01:41:33;;;;;;;13.95;8.48;;;;;;;13.32;86.00;99323.81;1615077;88;27468;-60
2022/10/19 01:44:10;;;;;;;13.32;8.05;;;;;;;13.27;86.39;99313.17;1596132;87;25842;-59
2022/10/19 01:46:41;;;;;;;14.28;8.58;;;;;;;13.29;86.47;99307.34;1621467;87;25718;-60
2022/10/19 01:49:20;;;;;;;15.93;8.40;;;;;;;13.29;86.50;99313.68;1632777;87;25794;-60
2022/10/19 01:51:54;;;;;;;11.57;8.23;;;;;;;13.26;86.50;99312.11;1632150;87;25493;-60
2022/10/19 01:54:22;;;;;;;12.10;8.53;;;;;;;13.31;86.67;99310.61;1634902;87;27407;-60
2022/10/19 01:56:51;;;;;;;11.33;8.58;;;;;;;13.33;86.50;99315.25;1631466;87;25978;-60
2022/10/19 01:59:21;;;;;;;14.28;8.78;;;;;;;13.33;86.68;99318.55;1635481;87;25860;-61
2022/10/19 02:01:51;;;;;;;13.75;8.58;;;;;;;13.30;86.70;99316.67;1615837;87;25665;-60
2022/10/19 02:04:20;;;;;;;11.90;8.03;;;;;;;13.29;86.82;99309.55;1591964;89;25781;-60
2022/10/19 02:06:49;;;;;;;13.78;8.75;;;;;;;13.28;86.89;99310.69;1614824;87;27403;-60
2022/10/19 02:09:17;;;;;;;13.48;9.10;;;;;;;13.27;87.39;99315.13;1645045;85;26120;-60
2022/10/19 02:11:47;;;;;;;12.90;9.28;;;;;;;13.23;87.62;99311.36;1681338;85;25578;-60
2022/10/19 02:14:17;;;;;;;13.85;9.00;;;;;;;13.16;88.05;99306.33;1663789;83;25760;-60
2022/10/19 02:16:48;;;;;;;13.23;9.10;;;;;;;13.14;88.49;99306.64;1667149;85;25708;-60
2022/10/19 02:19:17;;;;;;;12.18;8.58;;;;;;;13.18;87.77;99309.55;1685458;85;27977;-60
2022/10/19 02:21:44;;;;;;;12.63;8.60;;;;;;;13.16;89.05;99309.08;1679689;85;25852;-59
2022/10/19 02:24:11;;;;;;;12.78;8.80;;;;;;;13.16;88.30;99309.08;1660930;85;25502;-60
2022/10/19 02:26:38;;;;;;;12.58;8.25;;;;;;;13.15;88.22;99311.00;1681352;85;25987;-60
2022/10/19 02:29:05;;;;;;;12.65;8.88;;;;;;;13.12;88.11;99305.31;1661141;86;25668;-60
2022/10/19 02:31:32;;;;;;;12.18;8.85;;;;;;;13.09;88.47;99308.69;1662409;85;27441;-61
2022/10/19 02:33:58;;;;;;;15.15;8.88;;;;;;;13.09;88.82;99304.01;1675429;85;25946;-61
2022/10/19 02:36:25;;;;;;;14.68;8.35;;;;;;;13.13;88.12;99308.33;1678859;85;25726;-60
2022/10/19 02:38:51;;;;;;;13.15;8.43;;;;;;;13.13;88.27;99297.32;1684358;85;25786;-60
2022/10/19 02:41:37;;;;;;;13.30;7.70;;;;;;;13.14;87.92;99301.14;1663536;85;25645;-61
2022/10/19 02:44:19;;;;;;;11.88;8.08;;;;;;;13.14;87.76;99303.89;1606968;88;27434;-60
2022/10/19 02:46:50;;;;;;;11.57;8.03;;;;;;;13.16;87.83;99299.45;1603625;88;25724;-60
2022/10/19 02:49:17;;;;;;;11.85;8.60;;;;;;;13.15;88.02;99297.25;1627000;87;25648;-60
2022/10/19 02:52:00;;;;;;;11.65;7.67;;;;;;;13.17;87.93;99296.38;1604320;88;26677;-60
2022/10/19 02:54:27;;;;;;;10.50;7.42;;;;;;;13.18;87.72;99289.73;1612635;88;25653;-61
2022/10/19 02:56:54;;;;;;;10.63;7.50;;;;;;;13.18;87.68;99297.17;1634820;87;29515;-61
2022/10/19 02:59:21;;;;;;;9.43;6.55;;;;;;;13.18;87.79;99298.55;1602332;89;27167;-60
2022/10/19 03:01:48;;;;;;;9.05;6.53;;;;;;;13.13;88.09;99297.32;1619530;88;25717;-60
2022/10/19 03:04:15;;;;;;;10.20;7.25;;;;;;;13.16;88.10;99299.45;1604137;88;25820;-61
2022/10/19 03:06:41;;;;;;;9.43;6.45;;;;;;;13.16;87.94;99300.23;1634820;87;25754;-61
2022/10/19 03:09:08;;;;;;;10.50;5.85;;;;;;;13.17;88.12;99303.27;1617566;88;27418;-61
2022/10/19 03:11:34;;;;;;;9.55;5.90;;;;;;;13.13;88.74;99298.70;1614070;88;25832;-60
2022/10/19 03:14:01;;;;;;;8.63;6.10;;;;;;;13.13;88.74;99298.70;1631870;87;25867;-60
2022/10/19 03:16:27;;;;;;;10.60;6.08;;;;;;;13.11;88.95;99299.02;1624842;87;25695;-61
2022/10/19 03:18:53;;;;;;;9.10;6.22;;;;;;;13.12;88.37;99297.05;1573017;90;25556;-60
2022/10/19 03:21:20;;;;;;;8.25;6.17;;;;;;;13.13;88.36;99289.86;1606167;85;27438;-58
2022/10/19 03:28:10;;;;;;;7.83;5.67;;;;;;;13.15;88.39;99294.50;1660931;85;25437;-60
2022/10/19 03:30:36;;;;;;;8.68;6.15;;;;;;;13.06;88.26;99297.76;1682996;85;25520;-61
2022/10/19 03:33:02;;;;;;;9.33;6.25;;;;;;;12.95;88.33;99295.03;1654088;84;25713;-60
2022/10/19 03:35:28;;;;;;;7.42;6.05;;;;;;;12.80;88.15;99291.53;1660281;84;27569;-61
2022/10/19 03:37:54;;;;;;;9.53;6.53;;;;;;;12.69;88.15;99285.46;1642407;85;25486;-61
2022/10/19 03:40:20;;;;;;;10.18;7.20;;;;;;;12.69;88.32;99294.30;1663604;85;25496;-61
2022/10/19 03:42:46;;;;;;;9.08;7.05;;;;;;;12.68;88.11;99297.59;1657206;85;27765;-60
2022/10/19 03:45:12;;;;;;;10.95;7.53;;;;;;;12.70;88.24;99303.61;1684167;84;25477;-60
2022/10/19 03:47:39;;;;;;;10.60;8.00;;;;;;;12.64;88.88;99294.64;1669063;84;28277;-60
2022/10/19 03:50:09;;;;;;;16.60;8.43;;;;;;;12.64;88.88;99294.64;1681437;84;25519;-60
2022/10/19 03:52:37;;;;;;;12.82;8.05;;;;;;;12.66;88.51;99286.91;1687521;84;25725;-61
2022/10/19 03:55:05;;;;;;;13.68;8.28;;;;;;;12.69;88.80;99294.30;1688675;84;25754;-61
2022/10/19 03:57:31;;;;;;;13.43;8.85;;;;;;;12.67;88.30;99289.90;1668886;84;25450;-60
2022/10/19 03:59:57;;;;;;;12.73;8.20;;;;;;;12.63;88.19;99293.03;1694545;83;29508;-60
2022/10/19 04:02:23;;;;;;;9.43;7.08;;;;;;;12.59;88.46;99291.22;1707639;83;25921;-60
2022/10/19 04:04:49;;;;;;;15.95;8.48;;;;;;;12.55;88.96;99289.09;1717501;82;25480;-61
2022/10/19 04:07:15;;;;;;;12.63;8.73;;;;;;;12.54;88.94;99293.52;1700773;83;25475;-60
2022/10/19 04:09:41;;;;;;;14.63;8.75;;;;;;;12.51;88.72;99288.09;1702617;83;25665;-60
2022/10/19 04:12:07;;;;;;;10.53;7.45;;;;;;;12.48;89.24;99283.77;1698064;83;28444;-61
2022/10/19 04:14:34;;;;;;;12.28;8.33;;;;;;;12.42;88.98;99292.16;1709926;83;27205;-61
2022/10/19 04:17:01;;;;;;;13.40;8.65;;;;;;;12.42;88.44;99294.91;1699444;83;25631;-60
2022/10/19 04:19:28;;;;;;;12.82;8.20;;;;;;;12.41;88.27;99296.00;1690502;83;26723;-60
2022/10/19 04:21:54;;;;;;;12.35;8.45;;;;;;;12.38;88.69;99298.00;1653548;86;25462;-60
2022/10/19 04:24:20;;;;;;;13.48;9.00;;;;;;;12.38;88.69;99298.00;1654320;86;26729;-61
2022/10/19 04:26:52;;;;;;;11.63;8.53;;;;;;;12.39;88.36;99287.83;1669457;85;26010;-61
2022/10/19 04:29:22;;;;;;;11.05;7.92;;;;;;;12.46;88.12;99291.53;1674915;85;25501;-61
2022/10/19 04:31:50;;;;;;;12.53;8.50;;;;;;;12.44;87.99;99286.89;1663546;85;25858;-61
2022/10/19 04:34:18;;;;;;;11.83;7.97;;;;;;;12.44;88.20;99289.64;1655792;85;25651;-60
2022/10/19 04:36:44;;;;;;;17.77;8.43;;;;;;;12.44;88.20;99289.64;1667240;85;27407;-59
2022/10/19 04:39:11;;;;;;;14.10;8.70;;;;;;;12.30;88.49;99292.67;1658076;85;25466;-61
2022/10/19 04:41:37;;;;;;;13.62;9.03;;;;;;;12.22;88.20;99293.98;1681548;84;25667;-60
2022/10/19 04:44:05;;;;;;;13.28;8.70;;;;;;;12.07;88.08;99273.98;1654422;85;25937;-59
2022/10/19 04:46:32;;;;;;;12.58;8.48;;;;;;;12.07;87.89;99288.23;1665115;84;25722;-61
2022/10/19 04:48:59;;;;;;;13.80;8.48;;;;;;;12.04;87.68;99289.67;1652174;84;27396;-60
2022/10/19 04:51:26;;;;;;;14.47;8.88;;;;;;;11.98;87.55;99293.64;1664852;85;25721;-60
2022/10/19 04:53:54;;;;;;;13.50;8.45;;;;;;;11.95;87.29;99291.52;1665295;85;25482;-60
2022/10/19 04:56:38;;;;;;;17.95;9.25;;;;;;;11.89;87.23;99292.19;1663170;85;25783;-60
2022/10/19 04:59:04;;;;;;;12.43;8.80;;;;;;;11.73;87.13;99287.01;1658817;85;25442;-60
2022/10/19 05:01:31;;;;;;;14.85;8.93;;;;;;;11.65;87.26;99283.59;1653390;85;27536;-60
2022/10/19 05:04:00;;;;;;;13.40;8.53;;;;;;;11.65;87.26;99283.59;1661720;86;25597;-60
2022/10/19 05:06:29;;;;;;;13.95;8.43;;;;;;;11.56;87.36;99283.50;1649358;85;25610;-60
2022/10/19 05:08:56;;;;;;;14.10;9.25;;;;;;;11.45;87.46;99286.20;1625709;85;25670;-60
2022/10/19 05:11:23;;;;;;;14.13;8.15;;;;;;;11.41;87.83;99283.24;1644510;85;25685;-60
2022/10/19 05:13:50;;;;;;;12.43;8.75;;;;;;;11.35;87.81;99281.71;1647720;85;27437;-61
2022/10/19 05:16:20;;;;;;;15.85;8.78;;;;;;;11.32;87.87;99288.62;1643245;85;25445;-60
2022/10/19 05:18:58;;;;;;;12.70;8.00;;;;;;;11.33;87.84;99286.68;1655147;85;25608;-60
2022/10/19 05:21:27;;;;;;;15.68;7.95;;;;;;;11.29;87.90;99270.03;1652581;85;25764;-60
2022/10/19 05:23:55;;;;;;;12.25;8.18;;;;;;;11.37;88.02;99284.40;1658260;86;25691;-60
2022/10/19 05:26:25;;;;;;;12.23;7.58;;;;;;;11.40;88.01;99276.14;1629945;87;27532;-60
2022/10/19 05:28:55;;;;;;;12.63;7.45;;;;;;;11.39;87.90;99273.94;1617150;88;25648;-60
2022/10/19 05:31:24;;;;;;;14.15;9.03;;;;;;;11.39;87.90;99273.94;1616922;88;25511;-59
2022/10/19 05:33:51;;;;;;;13.32;8.70;;;;;;;11.29;87.70;99259.84;1617151;88;25774;-60
2022/10/19 05:36:28;;;;;;;13.75;9.00;;;;;;;11.29;87.70;99259.84;1620998;85;25614;-60
2022/10/19 05:38:56;;;;;;;10.70;8.40;;;;;;;11.37;87.67;99269.30;1668687;85;27377;-60
2022/10/19 05:41:24;;;;;;;16.27;8.75;;;;;;;11.37;87.67;99269.30;1670685;85;25755;-60
2022/10/19 05:43:57;;;;;;;14.35;8.83;;;;;;;11.39;87.48;99265.71;1659420;85;25683;-60
2022/10/19 05:46:24;;;;;;;11.75;8.53;;;;;;;11.42;87.37;99277.45;1643467;86;26343;-60
2022/10/19 05:48:50;;;;;;;19.02;8.90;;;;;;;11.42;87.20;99276.08;1658729;85;25603;-60
2022/10/19 05:51:20;;;;;;;13.35;8.73;;;;;;;11.44;87.33;99272.20;1673081;85;28334;-60
2022/10/19 05:53:47;;;;;;;17.98;10.30;;;;;;;11.45;87.36;99267.78;1681349;85;25533;-60
2022/10/19 05:56:17;;;;;;;19.57;12.10;;;;;;;11.43;87.46;99267.30;1679432;85;25517;-60
2022/10/19 05:58:44;;;;;;;20.88;12.05;;;;;;;11.44;87.61;99274.95;1664513;85;25492;-59
2022/10/19 06:01:11;;;;;;;17.10;11.03;;;;;;;11.44;87.87;99277.15;1688731;85;25635;-60
2022/10/19 06:03:38;;;;;;;18.02;11.03;;;;;;;11.47;87.99;99283.95;1711197;83;29617;-60
2022/10/19 06:06:06;;;;;;;16.20;10.08;;;;;;;11.50;87.84;99288.28;1690648;84;25440;-60
2022/10/19 06:08:33;;;;;;;15.70;10.28;;;;;;;11.56;88.18;99294.48;1711499;83;25440;-60
2022/10/19 06:11:11;;;;;;;14.25;9.28;;;;;;;11.62;88.36;99289.14;1681754;84;25696;-60
2022/10/19 06:13:40;;;;;;;14.47;9.48;;;;;;;11.69;88.54;99296.16;1686196;85;25706;-60
2022/10/19 06:16:08;;;;;;;14.33;9.23;;;;;;;11.77;88.50;99295.43;1662659;85;27477;-59
2022/10/19 06:18:36;;;;;;;15.13;9.38;;;;;;;11.77;88.50;99295.43;1670092;85;25724;-60
2022/10/19 06:21:10;;;;;;;14.65;8.83;;;;;;;11.81;88.63;99297.84;1654735;85;25702;-58
2022/10/19 06:23:36;;;;;;;15.90;9.68;;;;;;;11.86;88.91;99312.02;1647378;86;25760;-60
2022/10/19 06:26:07;;;;;;;16.50;10.43;;;;;;;11.84;88.78;99310.13;1627612;86;25473;-59
2022/10/19 06:28:34;;;;;;;15.63;9.78;;;;;;;11.90;88.58;99315.23;1626454;88;27605;-57
2022/10/19 06:31:00;;;;;;;14.85;9.70;;;;;;;11.94;88.50;99314.62;1640216;87;25933;-59
2022/10/19 06:33:28;;;;;;;18.75;10.05;;;;;;;11.96;88.29;99314.55;1639990;87;25720;-60
2022/10/19 06:36:04;;;;;;;15.68;10.63;;;;;;;11.97;88.57;99320.88;1664419;83;25686;-58
2022/10/19 06:38:31;;;;;;;25.88;11.68;;;;;;;11.97;88.42;99316.75;1634369;86;25510;-59
2022/10/19 06:41:00;;;;;;;23.00;11.08;;;;;;;12.02;88.12;99323.49;1636337;87;28557;-58
2022/10/19 06:43:27;;;;;;;19.23;10.13;;;;;;;11.99;88.72;99332.34;1636301;87;25522;-60
2022/10/19 06:45:54;;;;;;;19.67;10.72;;;;;;;12.00;88.79;99327.92;1631621;87;25796;-60
2022/10/19 06:48:20;;;;;;;18.05;11.35;;;;;;;12.17;89.23;99332.81;1630982;88;25767;-60
2022/10/19 06:50:55;;;;;;;17.05;10.85;;;;;;;12.17;89.23;99332.81;1630762;88;25696;-60
2022/10/19 06:53:22;;;;;;;23.38;13.80;;;;;;;12.22;88.30;99340.69;1633409;85;27486;-60
2022/10/19 06:55:48;;;;;;;18.92;11.15;;;;;;;12.26;88.30;99335.64;1669447;85;25699;-60
2022/10/19 06:58:14;;;;;;;17.98;11.63;;;;;;;12.32;87.93;99344.58;1657330;86;25697;-60
2022/10/19 07:00:41;;;;;;;17.42;11.97;;;;;;;12.27;87.91;99339.22;1656960;86;27833;-60
2022/10/19 07:03:07;;;;;;;19.30;11.75;;;;;;;12.27;87.91;99339.22;1657050;86;25736;-60
2022/10/19 07:05:34;;;;;;;22.15;11.53;;;;;;;12.35;87.80;99350.84;1657248;86;27505;-60
2022/10/19 07:08:00;;;;;;;15.13;10.05;;;;;;;12.37;87.66;99353.28;1657498;86;25710;-60
2022/10/19 07:10:27;;;;;;;16.85;11.15;;;;;;;12.32;87.78;99345.95;1657443;86;25688;-60
2022/10/19 07:12:55;;;;;;;18.05;10.10;;;;;;;12.40;87.82;99356.23;1657409;86;25816;-60
2022/10/19 07:15:21;;;;;;;18.52;10.30;;;;;;;12.44;87.61;99347.38;1657916;86;25466;-61
2022/10/19 07:17:48;;;;;;;17.07;10.65;;;;;;;12.51;87.20;99354.63;1658322;86;27429;-60
2022/10/19 07:20:14;;;;;;;22.75;11.03;;;;;;;12.53;87.10;99362.80;1657883;86;25459;-59
2022/10/19 07:22:41;;;;;;;15.48;10.70;;;;;;;12.56;87.01;99364.14;1658427;86;25533;-59
2022/10/19 07:25:08;;;;;;;18.98;11.57;;;;;;;12.60;86.95;99364.31;1657982;86;25744;-60
2022/10/19 07:28:01;;;;;;;19.52;12.20;;;;;;;12.62;86.59;99364.83;1658352;86;25768;-59
2022/10/19 07:30:27;;;;;;;21.93;12.37;;;;;;;12.57;86.48;99373.19;1658029;86;28006;-60
2022/10/19 07:32:53;;;;;;;21.02;12.60;;;;;;;12.55;86.26;99372.12;1657894;86;25666;-60
2022/10/19 07:35:20;;;;;;;16.85;11.30;;;;;;;12.52;86.57;99371.39;1657992;86;25450;-60
2022/10/19 07:37:46;;;;;;;18.37;10.53;;;;;;;12.52;86.51;99369.44;1657900;86;25841;-59
2022/10/19 07:40:13;;;;;;;13.48;8.68;;;;;;;12.57;85.13;99363.56;1669588;85;26535;-59
2022/10/19 07:42:39;;;;;;;13.35;8.98;;;;;;;12.57;85.13;99363.56;1684464;85;27284;-59
2022/10/19 07:45:07;;;;;;;16.90;10.50;;;;;;;12.60;84.64;99367.89;1679638;83;26166;-60
2022/10/19 07:47:34;;;;;;;18.40;9.88;;;;;;;12.64;84.87;99366.72;1635811;86;26524;-58
2022/10/19 07:50:00;;;;;;;14.43;8.88;;;;;;;12.71;85.47;99374.52;1634955;87;26498;-58
2022/10/19 07:52:26;;;;;;;15.68;9.33;;;;;;;12.76;84.58;99366.99;1681513;85;25786;-60
2022/10/19 07:54:54;;;;;;;17.50;9.53;;;;;;;12.77;83.69;99369.16;1689843;83;27429;-60
2022/10/19 07:57:21;;;;;;;15.13;9.50;;;;;;;12.79;84.54;99371.05;1704923;83;25959;-60
2022/10/19 07:59:47;;;;;;;16.82;9.15;;;;;;;12.74;85.58;99371.16;1703070;82;25741;-60
2022/10/19 08:02:16;;;;;;;16.32;8.23;;;;;;;12.66;84.97;99368.03;1652297;86;27870;-60
2022/10/19 08:04:43;;;;;;;14.30;7.58;;;;;;;12.58;83.30;99374.83;1645215;86;25688;-60
2022/10/19 08:07:10;;;;;;;13.10;8.63;;;;;;;12.51;82.20;99377.98;1664143;85;27479;-60
2022/10/19 08:09:36;;;;;;;11.90;7.33;;;;;;;12.46;81.52;99376.75;1648327;87;25764;-60
2022/10/19 08:12:04;;;;;;;12.35;6.87;;;;;;;12.49;80.47;99371.42;1658160;86;25508;-60
2022/10/19 08:14:31;;;;;;;13.40;7.12;;;;;;;12.49;80.47;99371.42;1658087;86;25783;-60
2022/10/19 08:16:57;;;;;;;10.63;6.70;;;;;;;12.64;81.28;99376.34;1657791;86;25442;-59
2022/10/19 08:19:23;;;;;;;8.18;5.65;;;;;;;12.76;81.61;99382.67;1657801;86;27888;-60
2022/10/19 08:21:50;;;;;;;10.13;5.25;;;;;;;12.89;80.76;99385.92;1657553;86;27106;-60
2022/10/19 08:24:18;;;;;;;8.23;4.30;;;;;;;13.16;79.65;99378.67;1657584;86;25630;-58
2022/10/19 08:26:50;;;;;;;8.28;4.80;;;;;;;13.28;76.67;99389.13;1657914;86;25848;-60
2022/10/19 08:29:19;;;;;;;6.53;4.12;;;;;;;13.33;75.73;99384.06;1657769;86;25650;-60
2022/10/19 08:31:47;;;;;;;8.05;4.10;;;;;;;13.24;74.62;99382.61;1655066;86;27458;-58
2022/10/19 08:34:15;;;;;;;8.75;4.22;;;;;;;13.14;76.33;99385.63;1657345;86;25490;-61
2022/10/19 08:36:42;;;;;;;9.10;4.60;;;;;;;13.07;75.35;99375.04;1657973;86;25473;-61
2022/10/19 08:39:11;;;;;;;9.68;4.70;;;;;;;13.01;75.56;99381.23;1657681;86;25711;-60
2022/10/19 08:41:49;;;;;;;11.25;3.95;;;;;;;13.05;75.37;99371.26;1657668;86;25754;-61
2022/10/19 08:44:35;;;;;;;5.62;3.58;;;;;;;13.03;75.58;99369.92;1657616;85;28120;-60
2022/10/19 08:47:32;;;;;;;6.87;3.55;;;;;;;12.95;74.56;99377.56;1672809;85;25622;-60
2022/10/19 08:49:59;;;;;;;6.12;3.08;;;;;;;12.93;74.52;99384.75;1659110;86;25693;-60
2022/10/19 08:52:30;;;;;;;7.62;2.80;;;;;;;12.92;73.68;99374.30;1671956;85;25834;-60
2022/10/19 08:55:08;;;;;;;4.85;2.92;;;;;;;12.94;72.98;99382.24;1652905;86;25449;-61
2022/10/19 08:57:52;;;;;;;5.17;2.62;;;;;;;12.91;71.69;99375.98;1651754;86;27445;-61
2022/10/19 09:01:06;;;;;;;7.05;3.12;;;;;;;12.93;72.89;99374.55;1652643;86;25960;-61
2022/10/19 09:03:45;;;;;;;4.65;1.95;;;;;;;14.12;69.60;99369.02;1652634;86;25523;-61
2022/10/19 09:06:32;;;;;;;3.20;1.82;;;;;;;14.12;69.60;99369.02;1652865;86;25708;-61
2022/10/19 09:08:59;;;;;;;2.87;1.40;;;;;;;14.93;65.94;99371.57;1644199;86;25753;-60
2022/10/19 09:11:30;;;;;;;3.08;1.50;;;;;;;15.70;63.35;99376.20;1652441;86;27384;-61
2022/10/19 09:14:07;;;;;;;3.17;1.40;;;;;;;16.00;61.37;99372.93;1652663;86;25974;-59
2022/10/19 09:16:34;;;;;;;2.00;0.80;;;;;;;16.05;61.25;99378.28;1652263;86;25483;-62
2022/10/19 09:19:00;;;;;;;4.40;1.20;;;;;;;15.77;54.12;99380.08;1671981;85;25898;-59
2022/10/19 09:21:49;;;;;;;3.37;1.30;;;;;;;15.49;55.48;99387.39;1652312;86;25511;-62
2022/10/19 09:24:32;;;;;;;3.05;0.98;;;;;;;15.38;59.48;99380.61;1652732;86;28397;-62
2022/10/19 09:27:01;;;;;;;2.98;1.50;;;;;;;15.14;56.61;99389.66;1641597;86;25459;-61
2022/10/19 09:29:55;;;;;;;3.37;1.60;;;;;;;15.00;59.17;99388.44;1650829;86;25748;-58
2022/10/19 09:32:32;;;;;;;2.85;1.32;;;;;;;14.96;59.98;99388.03;1652542;86;25744;-62
2022/10/19 09:35:23;;;;;;;4.30;1.17;;;;;;;14.84;58.84;99390.89;1633525;86;25657;-62
2022/10/19 09:37:50;;;;;;;1.67;0.80;;;;;;;14.72;57.78;99400.34;1652016;86;28067;-62
2022/10/19 09:40:21;;;;;;;6.10;0.95;;;;;;;14.57;57.09;99392.80;1652524;86;25670;-62
2022/10/19 09:42:55;;;;;;;3.72;1.42;;;;;;;14.55;57.15;99391.75;1652813;86;25507;-63
2022/10/19 09:45:50;;;;;;;3.00;1.10;;;;;;;14.45;57.97;99389.86;1688463;83;25768;-62
2022/10/19 09:48:37;;;;;;;2.90;1.10;;;;;;;14.39;58.45;99395.52;1684119;84;25608;-61
2022/10/19 09:51:38;;;;;;;3.02;1.00;;;;;;;14.25;58.79;99388.75;1662581;85;27445;-62
2022/10/19 09:54:04;;;;;;;;;;;;;;;14.01;58.57;99390.55;1632355;88;25564;-62
2022/10/19 09:56:36;;;;;;;4.10;1.00;;;;;;;13.87;59.79;99403.87;1627656;88;25784;-62
2022/10/19 09:59:03;;;;;;;1.32;0.90;;;;;;;13.77;60.64;99398.09;1608145;89;25886;-62
2022/10/19 10:01:39;;;;;;;4.75;1.47;;;;;;;13.63;60.58;99398.18;1629999;88;25716;-63
2022/10/19 10:04:14;;;;;;;3.08;1.42;;;;;;;13.59;61.24;99406.84;1611695;89;27733;-62
2022/10/19 10:06:42;;;;;;;2.98;1.32;;;;;;;13.60;62.14;99396.61;1629372;88;25555;-63
2022/10/19 10:09:20;;;;;;;2.45;1.22;;;;;;;13.55;62.01;99401.13;1611592;89;25502;-63
2022/10/19 10:11:49;;;;;;;3.17;1.62;;;;;;;13.59;61.95;99407.39;1630164;88;26184;-63
2022/10/19 10:14:29;;;;;;;2.35;1.60;;;;;;;13.62;61.90;99413.64;1611604;89;25566;-63
2022/10/19 10:17:20;;;;;;;3.58;1.55;;;;;;;13.59;62.14;99404.63;1628915;88;28277;-63
2022/10/19 10:20:04;;;;;;;4.12;1.75;;;;;;;13.51;62.39;99395.19;1611451;89;25534;-63
2022/10/19 10:22:35;;;;;;;5.20;1.75;;;;;;;13.46;61.78;99399.41;1630160;88;25719;-63
2022/10/19 10:25:08;;;;;;;4.08;1.62;;;;;;;13.35;61.60;99396.11;1642442;86;25961;-63
2022/10/19 10:27:37;;;;;;;4.15;1.30;;;;;;;13.29;61.60;99402.31;1682206;85;25673;-64
2022/10/19 10:30:12;;;;;;;3.40;1.82;;;;;;;13.26;62.51;99401.56;1677987;85;27476;-64
2022/10/19 10:32:44;;;;;;;3.70;1.40;;;;;;;13.23;62.01;99404.38;1648176;86;25696;-62
2022/10/19 10:35:35;;;;;;;2.33;1.30;;;;;;;13.15;61.51;99398.24;1648832;86;25607;-63
2022/10/19 10:38:13;;;;;;;3.75;1.30;;;;;;;13.06;62.27;99405.06;1648808;87;25739;-64
2022/10/19 10:40:44;;;;;;;6.20;2.27;;;;;;;13.01;63.08;99396.38;1647705;86;25640;-63
2022/10/19 10:43:15;;;;;;;;;;;;;;;12.94;63.73;99391.87;1648342;86;27460;-64
2022/10/19 10:45:46;;;;;;;3.30;1.98;;;;;;;12.88;64.12;99396.69;1677606;85;25695;-63
2022/10/19 10:48:16;;;;;;;;;;;;;;;12.81;64.70;99392.16;1703953;84;25734;-64
2022/10/19 10:50:43;;;;;;;6.67;2.30;;;;;;;12.81;64.99;99396.28;1701993;84;26531;-64
2022/10/19 10:53:44;;;;;;;4.33;2.37;;;;;;;12.80;65.30;99391.36;1701435;84;25678;-64
2022/10/19 10:56:32;;;;;;;4.03;2.05;;;;;;;12.70;65.75;99395.73;1635678;86;27431;-63
2022/10/19 10:59:26;;;;;;;6.62;2.62;;;;;;;12.64;65.59;99391.47;1638215;87;25791;-64
2022/10/19 11:02:19;;;;;;;5.05;2.58;;;;;;;12.59;65.75;99394.31;1638652;87;25744;-64
2022/10/19 11:05:06;;;;;;;4.70;2.70;;;;;;;12.55;66.54;99389.44;1638268;87;25697;-64
2022/10/19 11:07:34;;;;;;;4.40;2.25;;;;;;;12.82;65.73;99391.05;1637071;87;25521;-63
2022/10/19 11:10:29;;;;;;;8.65;2.87;;;;;;;12.82;65.73;99391.05;1638490;87;27471;-64
2022/10/19 11:13:09;;;;;;;6.22;2.98;;;;;;;12.90;65.24;99391.67;1638800;87;25695;-63
2022/10/19 11:15:50;;;;;;;6.92;2.67;;;;;;;12.91;65.92;99376.81;1639646;87;25680;-65
2022/10/19 11:18:28;;;;;;;;;;;;;;;13.03;65.67;99384.50;1641273;87;26611;-65
2022/10/19 11:21:03;;;;;;;4.40;2.12;;;;;;;13.09;65.46;99382.98;1638575;87;25659;-65
2022/10/19 11:23:40;;;;;;;7.08;3.33;;;;;;;13.14;65.39;99381.49;1638738;85;27350;-65
2022/10/19 11:26:31;;;;;;;6.35;3.10;;;;;;;13.20;65.38;99382.99;1564751;90;25737;-64
2022/10/19 11:29:21;;;;;;;5.05;2.20;;;;;;;13.20;65.38;99382.99;1564277;91;25747;-64
2022/10/19 11:31:52;;;;;;;3.67;2.05;;;;;;;13.29;65.35;99367.91;1578174;90;25834;-65
2022/10/19 11:34:38;;;;;;;;;;;;;;;13.58;63.88;99358.38;1593660;90;25587;-63
2022/10/19 11:37:28;;;;;;;4.55;2.08;;;;;;;13.60;64.08;99367.70;1584353;90;27427;-63
2022/10/19 11:40:20;;;;;;;6.13;2.17;;;;;;;13.65;63.55;99361.48;1630423;86;25477;-62
2022/10/19 11:42:58;;;;;;;3.47;1.98;;;;;;;13.70;63.80;99356.39;1627325;88;25820;-63
2022/10/19 11:45:41;;;;;;;3.75;1.55;;;;;;;13.66;62.50;99358.99;1622691;88;25832;-63
2022/10/19 11:48:58;;;;;;;3.95;2.08;;;;;;;13.54;61.76;99360.14;1579956;89;25852;-63
2022/10/19 11:51:41;;;;;;;4.15;1.62;;;;;;;13.47;61.34;99370.77;1563886;91;27477;-63
2022/10/19 11:54:28;;;;;;;3.27;1.70;;;;;;;13.39;62.02;99365.47;1572118;90;27123;-64
2022/10/19 11:56:59;;;;;;;1.95;1.30;;;;;;;13.30;61.14;99366.80;1599921;89;26453;-62
2022/10/19 11:59:36;;;;;;;2.95;1.45;;;;;;;13.28;60.38;99362.16;1638072;87;25856;-65